Time;durP1;ratioP1;P1;durP2;ratioP2;P2;SDS_P1;SDS_P2;PMS_P1;PMS_P2;Temp;Humidity;BMP_temperature;BMP_pressure;BME280_temperature;BME280_humidity;BME280_pressure;Samples;Min_cycle;Max_cycle;Signal;HPM_P1;HPM_P2
2023/03/02 00:01:25;;;;;;;8.05;3.60;;;7.30;76.80;;;;;;5094407;28;20056;-16
2023/03/02 00:03:51;;;;;;;6.68;3.88;;;7.20;76.80;;;;;;5094479;28;20096;-17
2023/03/02 00:06:18;;;;;;;6.57;3.40;;;7.20;76.60;;;;;;5094077;28;20028;-16
2023/03/02 00:08:44;;;;;;;7.47;4.15;;;7.20;76.60;;;;;;5093788;28;20478;-16
2023/03/02 00:11:10;;;;;;;9.77;4.00;;;7.30;76.40;;;;;;5093801;28;20065;-17
2023/03/02 00:13:37;;;;;;;8.00;4.15;;;7.30;76.40;;;;;;5181671;22;20048;-16
2023/03/02 00:16:04;;;;;;;6.53;3.83;;;7.20;76.50;;;;;;5094151;28;20475;-16
2023/03/02 00:18:30;;;;;;;7.35;3.80;;;7.20;76.50;;;;;;5093560;28;20039;-16
2023/03/02 00:20:56;;;;;;;8.25;4.45;;;7.20;76.60;;;;;;5093508;28;20024;-16
2023/03/02 00:23:22;;;;;;;6.72;3.40;;;7.20;76.70;;;;;;5094134;28;20106;-17
2023/03/02 00:25:47;;;;;;;6.40;3.47;;;7.20;76.60;;;;;;5093872;28;20386;-17
2023/03/02 00:28:13;;;;;;;7.15;3.78;;;7.20;76.80;;;;;;5093482;28;20028;-18
2023/03/02 00:30:39;;;;;;;12.85;6.53;;;7.20;76.70;;;;;;5133257;22;20079;-17
2023/03/02 00:33:05;;;;;;;8.55;4.65;;;7.10;76.60;;;;;;5038935;28;20024;-17
2023/03/02 00:35:37;;;;;;;7.05;3.55;;;7.10;76.60;;;;;;5073520;28;20462;-17
2023/03/02 00:38:03;;;;;;;5.95;3.50;;;7.10;76.60;;;;;;5073136;28;20107;-17
2023/03/02 00:40:29;;;;;;;7.97;3.92;;;7.10;76.60;;;;;;5073316;28;20056;-16
2023/03/02 00:42:55;;;;;;;7.47;4.00;;;7.00;76.70;;;;;;5073241;28;20051;-17
2023/03/02 00:45:21;;;;;;;6.45;3.60;;;7.00;76.70;;;;;;5073314;28;20414;-18
2023/03/02 00:47:47;;;;;;;8.68;4.20;;;6.90;76.80;;;;;;5073312;28;20387;-16
2023/03/02 00:50:12;;;;;;;9.75;4.38;;;6.90;76.80;;;;;;5073070;28;20040;-18
2023/03/02 00:52:38;;;;;;;7.22;3.97;;;6.80;76.80;;;;;;5072940;28;20020;-18
2023/03/02 00:55:05;;;;;;;8.40;4.15;;;6.80;76.90;;;;;;5072880;28;20050;-16
2023/03/02 00:57:31;;;;;;;8.10;4.20;;;6.70;76.90;;;;;;5072813;28;20028;-16
2023/03/02 00:59:56;;;;;;;9.32;4.25;;;6.70;77.00;;;;;;5072420;28;20036;-16
2023/03/02 01:02:22;;;;;;;9.52;4.95;;;6.60;77.00;;;;;;5072715;28;20024;-17
2023/03/02 01:04:48;;;;;;;7.82;4.30;;;6.70;77.00;;;;;;5149786;22;20100;-23
2023/03/02 01:07:19;;;;;;;8.02;4.30;;;6.70;76.90;;;;;;5093048;28;20044;-21
2023/03/02 01:09:47;;;;;;;8.35;4.15;;;6.60;76.90;;;;;;5145169;22;20056;-17
2023/03/02 01:12:13;;;;;;;8.02;3.58;;;6.60;76.90;;;;;;5073018;28;20086;-15
2023/03/02 01:14:44;;;;;;;7.40;3.72;;;6.60;76.90;;;;;;5072535;28;20034;-17
2023/03/02 01:17:10;;;;;;;8.65;4.50;;;6.60;77.00;;;;;;5072632;28;20021;-18
2023/03/02 01:19:37;;;;;;;7.20;3.85;;;6.70;77.00;;;;;;5180849;22;20051;-16
2023/03/02 01:22:04;;;;;;;7.78;4.00;;;6.60;76.90;;;;;;5092624;28;20452;-16
2023/03/02 01:24:31;;;;;;;5.32;3.50;;;6.60;76.90;;;;;;5092012;22;20053;-15
2023/03/02 01:26:57;;;;;;;7.85;3.85;;;6.60;77.00;;;;;;5012609;28;20499;-16
2023/03/02 01:29:23;;;;;;;7.72;4.32;;;6.70;77.00;;;;;;5012815;28;20113;-17
2023/03/02 01:31:48;;;;;;;8.45;4.43;;;6.70;76.90;;;;;;5012644;28;20026;-17
2023/03/02 01:34:15;;;;;;;7.32;4.28;;;6.70;77.00;;;;;;5012809;28;20026;-17
2023/03/02 01:36:44;;;;;;;8.20;4.70;;;6.70;76.90;;;;;;5012561;28;20053;-18
2023/03/02 01:39:14;;;;;;;8.32;4.50;;;6.70;76.90;;;;;;5012813;28;20022;-15
2023/03/02 01:41:45;;;;;;;8.80;4.47;;;6.70;76.90;;;;;;5012865;28;20053;-16
2023/03/02 01:44:33;;;;;;;8.05;4.35;;;6.70;77.00;;;;;;5012789;28;20030;-15
2023/03/02 01:47:00;;;;;;;7.80;4.18;;;6.60;77.00;;;;;;5012346;28;20029;-16
2023/03/02 01:49:26;;;;;;;9.75;4.95;;;6.70;77.00;;;;;;5012892;28;20034;-16
2023/03/02 01:51:53;;;;;;;8.82;4.95;;;6.60;77.00;;;;;;5012758;28;20041;-18
2023/03/02 01:54:22;;;;;;;8.13;4.88;;;6.60;77.00;;;;;;5012603;28;20026;-16
2023/03/02 01:56:52;;;;;;;8.77;4.88;;;6.60;76.90;;;;;;5012508;28;20380;-17
2023/03/02 01:59:21;;;;;;;10.65;5.13;;;6.60;76.90;;;;;;5012776;28;20034;-15
2023/03/02 02:01:51;;;;;;;10.98;5.47;;;6.60;76.90;;;;;;5012395;28;20389;-16
2023/03/02 02:04:19;;;;;;;11.27;5.43;;;6.60;76.90;;;;;;5012429;28;20022;-16
2023/03/02 02:06:58;;;;;;;10.40;5.72;;;6.50;76.90;;;;;;5012227;28;20034;-17
2023/03/02 02:09:26;;;;;;;13.60;6.90;;;6.40;76.90;;;;;;5012376;28;20512;-18
2023/03/02 02:11:52;;;;;;;13.00;5.85;;;6.40;77.00;;;;;;5010956;28;20022;-17
2023/03/02 02:14:19;;;;;;;12.27;6.18;;;6.40;77.00;;;;;;5112436;22;20113;-18
2023/03/02 02:16:45;;;;;;;12.48;5.68;;;6.40;77.00;;;;;;5071534;28;20064;-18
2023/03/02 02:21:39;;;;;;;10.73;6.00;;;6.30;77.00;;;;;;5110131;22;20061;-17
2023/03/02 02:24:10;;;;;;;10.07;4.90;;;6.20;77.00;;;;;;5056050;28;20056;-17
2023/03/02 02:26:44;;;;;;;8.82;5.00;;;6.20;77.10;;;;;;5055885;28;20179;-16
2023/03/02 02:29:23;;;;;;;9.57;5.45;;;6.10;77.10;;;;;;5055924;28;20025;-17
2023/03/02 02:32:13;;;;;;;8.48;4.50;;;6.00;77.20;;;;;;5055876;28;20033;-15
2023/03/02 02:34:44;;;;;;;7.32;4.18;;;5.90;77.30;;;;;;5055812;28;20052;-17
2023/03/02 02:37:15;;;;;;;9.40;4.63;;;5.90;77.40;;;;;;5055447;28;20044;-16
2023/03/02 02:39:45;;;;;;;7.65;4.35;;;5.80;77.50;;;;;;5055470;28;20040;-16
2023/03/02 02:42:16;;;;;;;8.27;4.28;;;5.80;77.60;;;;;;5055620;28;20017;-16
2023/03/02 02:44:42;;;;;;;6.60;3.88;;;5.80;77.70;;;;;;5055548;28;20112;-15
2023/03/02 02:47:19;;;;;;;8.60;4.00;;;5.80;77.70;;;;;;5055612;28;20103;-14
2023/03/02 02:49:47;;;;;;;7.57;4.00;;;5.80;77.60;;;;;;5055280;28;20059;-16
2023/03/02 02:52:18;;;;;;;7.53;4.07;;;5.90;77.70;;;;;;5055360;28;20456;-12
2023/03/02 02:54:47;;;;;;;7.70;4.45;;;5.90;77.70;;;;;;5055439;28;20021;-15
2023/03/02 02:57:16;;;;;;;8.35;4.13;;;6.00;77.60;;;;;;5054897;28;20476;-16
2023/03/02 02:59:54;;;;;;;7.15;4.13;;;6.00;77.50;;;;;;5054906;28;20495;-17
2023/03/02 03:02:24;;;;;;;6.70;3.50;;;6.00;77.30;;;;;;5055139;28;20107;-17
2023/03/02 03:04:50;;;;;;;7.10;4.32;;;6.00;77.20;;;;;;5055212;28;20021;-16
2023/03/02 03:07:22;;;;;;;8.05;4.43;;;6.00;77.10;;;;;;5055938;28;20021;-16
2023/03/02 03:09:54;;;;;;;8.38;4.68;;;6.10;77.00;;;;;;5055066;28;20029;-17
2023/03/02 03:12:24;;;;;;;6.50;3.75;;;6.10;76.90;;;;;;5055086;28;20029;-16
2023/03/02 03:14:50;;;;;;;7.00;4.40;;;6.00;76.80;;;;;;5130268;22;20110;-21
2023/03/02 03:17:16;;;;;;;5.80;3.70;;;6.10;76.80;;;;;;5074955;28;20029;-23
2023/03/02 03:19:44;;;;;;;6.88;3.40;;;6.10;76.80;;;;;;5075667;28;20035;-22
2023/03/02 03:22:11;;;;;;;8.13;4.53;;;6.20;76.70;;;;;;5074835;28;20096;-22
2023/03/02 03:24:39;;;;;;;6.88;4.10;;;6.20;76.70;;;;;;5074568;28;20437;-22
2023/03/02 03:27:05;;;;;;;6.55;3.83;;;6.20;76.40;;;;;;5130230;22;20118;-16
2023/03/02 03:29:33;;;;;;;7.20;4.00;;;6.20;76.50;;;;;;5075161;28;20403;-17
2023/03/02 03:32:01;;;;;;;5.57;3.13;;;6.20;76.40;;;;;;5074195;28;20029;-15
2023/03/02 03:34:29;;;;;;;7.93;4.13;;;6.20;75.80;;;;;;5074710;28;20024;-15
2023/03/02 03:37:00;;;;;;;8.27;3.97;;;6.30;76.00;;;;;;5148518;22;20052;-23
2023/03/02 03:39:30;;;;;;;5.50;3.58;;;6.30;75.80;;;;;;5055141;28;20041;-24
2023/03/02 03:41:56;;;;;;;5.68;3.30;;;6.30;75.70;;;;;;5054396;28;20029;-24
2023/03/02 03:44:22;;;;;;;6.78;3.90;;;6.30;75.70;;;;;;5054410;28;20044;-24
2023/03/02 03:46:48;;;;;;;6.63;3.22;;;6.30;75.50;;;;;;5052947;28;20029;-24
2023/03/02 03:49:14;;;;;;;6.90;3.17;;;6.30;75.50;;;;;;5054330;28;20032;-24
2023/03/02 03:51:39;;;;;;;4.55;3.20;;;6.30;75.40;;;;;;5054420;28;20029;-24
2023/03/02 03:54:07;;;;;;;5.97;3.20;;;6.30;75.30;;;;;;5054236;28;20124;-24
2023/03/02 03:56:40;;;;;;;6.88;3.67;;;6.30;75.30;;;;;;5054358;28;20063;-24
2023/03/02 03:59:07;;;;;;;5.07;2.80;;;6.30;75.10;;;;;;5054575;28;20035;-24
2023/03/02 04:01:35;;;;;;;5.03;2.90;;;6.30;75.20;;;;;;5054603;28;20040;-24
2023/03/02 04:04:02;;;;;;;6.63;3.47;;;6.30;75.10;;;;;;5054273;28;20033;-23
2023/03/02 04:06:28;;;;;;;7.05;3.90;;;6.30;75.10;;;;;;5053997;28;20028;-23
2023/03/02 04:08:54;;;;;;;9.07;3.97;;;6.30;75.10;;;;;;5112650;22;20064;-17
2023/03/02 04:11:20;;;;;;;6.80;3.33;;;6.30;75.10;;;;;;5053773;28;20025;-17
2023/03/02 04:13:45;;;;;;;5.95;3.50;;;6.30;75.10;;;;;;5052576;28;20090;-18
2023/03/02 04:16:11;;;;;;;5.85;3.65;;;6.20;75.10;;;;;;5053869;28;20021;-16
2023/03/02 04:18:37;;;;;;;6.43;3.47;;;6.20;75.20;;;;;;5053970;28;20124;-17
2023/03/02 04:21:03;;;;;;;6.18;3.35;;;6.20;75.20;;;;;;5053539;28;20021;-18
2023/03/02 04:23:29;;;;;;;5.40;3.28;;;6.20;75.20;;;;;;5147741;22;20011;-13
2023/03/02 04:25:55;;;;;;;5.95;3.55;;;6.10;75.30;;;;;;5073512;28;20032;-15
2023/03/02 04:28:21;;;;;;;6.70;3.70;;;6.20;75.20;;;;;;5073506;28;20040;-15
2023/03/02 04:30:46;;;;;;;5.57;3.58;;;6.20;75.20;;;;;;5073523;28;20035;-15
2023/03/02 04:33:12;;;;;;;6.07;3.55;;;6.10;75.10;;;;;;5073444;28;20469;-16
2023/03/02 04:35:38;;;;;;;9.38;3.72;;;6.10;75.10;;;;;;5073455;28;20028;-15
2023/03/02 04:38:04;;;;;;;7.28;3.70;;;6.10;75.10;;;;;;5073473;28;20036;-18
2023/03/02 04:40:30;;;;;;;7.30;4.00;;;6.10;75.20;;;;;;5088589;28;20031;-16
2023/03/02 04:42:56;;;;;;;9.20;3.80;;;6.00;75.30;;;;;;5072120;28;20032;-16
2023/03/02 04:45:22;;;;;;;6.22;3.60;;;6.00;75.40;;;;;;5073080;28;20017;-16
2023/03/02 04:47:48;;;;;;;8.45;3.90;;;6.00;75.40;;;;;;5071644;28;20108;-16
2023/03/02 04:50:14;;;;;;;6.10;3.63;;;6.10;75.30;;;;;;5130066;22;20056;-17
2023/03/02 04:52:41;;;;;;;6.60;4.03;;;6.10;75.30;;;;;;5071703;28;20031;-17
2023/03/02 04:55:07;;;;;;;5.22;3.40;;;6.20;75.20;;;;;;5073032;28;20028;-16
2023/03/02 04:57:34;;;;;;;6.93;3.70;;;6.20;75.40;;;;;;5073135;28;20039;-17
2023/03/02 04:59:59;;;;;;;4.85;3.30;;;6.30;75.20;;;;;;5143778;22;20072;-20
2023/03/02 05:02:25;;;;;;;6.10;3.47;;;6.30;75.20;;;;;;5052744;28;20472;-20
2023/03/02 05:04:51;;;;;;;9.43;3.75;;;6.30;75.50;;;;;;5052887;28;20033;-20
2023/03/02 05:07:17;;;;;;;6.80;3.90;;;6.40;75.40;;;;;;5052764;28;20108;-20
2023/03/02 05:09:43;;;;;;;6.95;3.92;;;6.40;75.50;;;;;;5052473;28;20135;-21
2023/03/02 05:12:09;;;;;;;6.18;3.70;;;6.40;75.20;;;;;;5052931;28;20147;-20
2023/03/02 05:14:35;;;;;;;6.97;4.00;;;6.40;75.00;;;;;;5052792;28;20029;-20
2023/03/02 05:17:01;;;;;;;6.07;3.90;;;6.40;74.80;;;;;;5052349;28;20528;-20
2023/03/02 05:19:27;;;;;;;6.03;3.58;;;6.50;74.80;;;;;;5052398;28;20124;-19
2023/03/02 05:21:53;;;;;;;6.28;3.97;;;6.50;74.80;;;;;;5052601;28;20025;-20
2023/03/02 05:24:19;;;;;;;7.85;4.07;;;6.50;74.80;;;;;;5052511;28;20052;-19
2023/03/02 05:26:44;;;;;;;7.30;3.92;;;6.50;74.80;;;;;;5052396;28;20024;-21
2023/03/02 05:29:10;;;;;;;5.10;3.72;;;6.50;74.90;;;;;;5052449;28;20021;-20
2023/03/02 05:31:39;;;;;;;8.50;4.32;;;6.60;75.00;;;;;;5053209;28;20499;-20
2023/03/02 05:34:09;;;;;;;7.50;3.97;;;6.50;75.10;;;;;;5052017;28;20017;-21
2023/03/02 05:36:35;;;;;;;5.55;3.33;;;6.50;75.00;;;;;;5052154;28;20032;-21
2023/03/02 05:39:02;;;;;;;6.43;4.00;;;6.50;74.90;;;;;;5051889;28;20098;-20
2023/03/02 05:41:28;;;;;;;7.03;3.90;;;6.50;75.00;;;;;;5052005;28;20476;-20
2023/03/02 05:43:54;;;;;;;5.35;3.60;;;6.50;75.10;;;;;;5052335;28;20039;-20
2023/03/02 05:46:20;;;;;;;5.03;3.63;;;6.50;75.00;;;;;;5052015;28;20037;-21
2023/03/02 05:48:46;;;;;;;5.32;3.83;;;6.50;74.90;;;;;;5051909;28;20074;-20
2023/03/02 05:51:12;;;;;;;5.45;3.38;;;6.40;75.10;;;;;;5051983;28;20383;-20
2023/03/02 05:53:38;;;;;;;8.18;4.70;;;6.40;75.10;;;;;;5052573;28;20021;-20
2023/03/02 05:56:04;;;;;;;8.07;4.60;;;6.40;75.10;;;;;;5056102;28;20017;-20
2023/03/02 05:58:30;;;;;;;10.38;5.03;;;6.40;75.00;;;;;;5129866;22;20048;-17
2023/03/02 06:00:55;;;;;;;9.90;5.20;;;6.30;75.10;;;;;;5076378;28;20032;-17
2023/03/02 06:03:21;;;;;;;8.95;5.28;;;6.30;75.10;;;;;;5076331;28;20491;-18
2023/03/02 06:05:49;;;;;;;7.30;5.07;;;6.30;75.10;;;;;;5076025;28;20059;-17
2023/03/02 06:08:17;;;;;;;10.02;5.35;;;6.20;75.20;;;;;;5163262;22;20053;-18
2023/03/02 06:10:43;;;;;;;10.82;5.78;;;6.20;75.20;;;;;;5076039;28;20028;-19
2023/03/02 06:13:09;;;;;;;12.05;5.82;;;6.20;75.20;;;;;;5133323;22;20080;-16
2023/03/02 06:15:35;;;;;;;10.52;6.18;;;6.20;75.50;;;;;;5076294;28;20491;-16
2023/03/02 06:18:02;;;;;;;12.57;6.68;;;6.30;75.40;;;;;;5076439;28;20107;-18
2023/03/02 06:20:28;;;;;;;12.18;6.53;;;6.20;75.40;;;;;;5076019;28;20028;-17
2023/03/02 06:22:54;;;;;;;10.82;6.15;;;6.30;75.30;;;;;;5075860;28;20017;-14
2023/03/02 06:25:22;;;;;;;10.93;6.40;;;6.40;75.70;;;;;;5076062;28;20482;-16
2023/03/02 06:27:50;;;;;;;11.40;5.97;;;6.50;75.90;;;;;;5173839;22;20130;-16
2023/03/02 06:30:18;;;;;;;10.73;5.88;;;6.70;75.70;;;;;;5095789;28;20522;-16
2023/03/02 06:32:44;;;;;;;9.32;5.65;;;6.90;75.60;;;;;;5095677;28;20020;-16
2023/03/02 06:35:12;;;;;;;9.48;5.05;;;7.00;75.60;;;;;;5096011;28;20081;-17
2023/03/02 06:37:38;;;;;;;8.77;5.28;;;7.10;75.40;;;;;;5095998;28;20032;-16
2023/03/02 06:40:07;;;;;;;7.80;4.82;;;7.30;75.50;;;;;;5095652;28;20023;-16
2023/03/02 06:42:33;;;;;;;10.40;5.75;;;7.40;75.30;;;;;;5095523;28;20483;-17
2023/03/02 06:44:59;;;;;;;9.02;5.00;;;7.50;75.50;;;;;;5095621;28;20069;-17
2023/03/02 06:47:24;;;;;;;8.32;4.63;;;7.60;75.60;;;;;;5095432;28;20498;-16
2023/03/02 06:49:50;;;;;;;8.50;5.20;;;7.90;75.70;;;;;;5095524;28;20058;-16
2023/03/02 06:52:16;;;;;;;8.23;4.75;;;8.20;75.30;;;;;;5095255;28;20032;-16
2023/03/02 06:54:42;;;;;;;10.95;6.00;;;8.50;75.20;;;;;;5095427;28;20024;-17
2023/03/02 06:57:08;;;;;;;10.43;5.75;;;8.90;74.50;;;;;;5095397;28;20016;-16
2023/03/02 06:59:34;;;;;;;10.98;5.65;;;9.20;73.70;;;;;;5095766;28;20028;-17
2023/03/02 07:02:00;;;;;;;10.50;5.47;;;9.50;73.10;;;;;;5095634;28;20027;-16
2023/03/02 07:04:29;;;;;;;10.65;5.15;;;9.70;72.80;;;;;;5095175;28;20024;-18
2023/03/02 07:06:55;;;;;;;6.40;4.00;;;10.00;69.20;;;;;;5094205;28;20026;-17
2023/03/02 07:09:21;;;;;;;7.38;4.40;;;10.20;67.10;;;;;;5095415;28;20091;-16
2023/03/02 07:11:47;;;;;;;8.57;4.25;;;10.30;68.30;;;;;;5076716;28;20063;-16
2023/03/02 07:14:13;;;;;;;7.43;4.10;;;10.30;66.00;;;;;;5095180;28;20024;-15
2023/03/02 07:16:39;;;;;;;6.85;4.07;;;10.30;67.60;;;;;;5094811;28;20035;-16
2023/03/02 07:19:04;;;;;;;9.30;4.57;;;10.30;67.60;;;;;;5095247;28;20035;-15
2023/03/02 07:21:30;;;;;;;8.02;4.72;;;10.30;68.10;;;;;;5095261;28;20359;-16
2023/03/02 07:23:56;;;;;;;7.50;4.63;;;10.30;68.00;;;;;;5095104;28;20111;-16
2023/03/02 07:26:22;;;;;;;6.88;4.32;;;10.40;65.90;;;;;;5094979;28;20028;-17
2023/03/02 07:28:47;;;;;;;6.75;4.30;;;10.60;67.40;;;;;;5094117;28;20106;-13
2023/03/02 07:31:13;;;;;;;5.25;3.63;;;10.80;65.20;;;;;;5094847;28;20030;-15
2023/03/02 07:33:40;;;;;;;5.63;3.50;;;10.90;64.30;;;;;;5094523;28;20039;-15
2023/03/02 07:36:06;;;;;;;4.95;3.20;;;11.00;64.10;;;;;;5094782;28;20039;-16
2023/03/02 07:38:33;;;;;;;5.05;3.40;;;11.10;62.00;;;;;;5094825;28;20055;-15
2023/03/02 07:40:58;;;;;;;4.80;3.20;;;10.90;63.90;;;;;;5094150;28;20024;-17
2023/03/02 07:43:27;;;;;;;5.43;3.22;;;10.90;62.90;;;;;;5094554;28;20031;-17
2023/03/02 07:45:53;;;;;;;5.07;3.38;;;11.10;63.60;;;;;;5094581;28;20038;-16
2023/03/02 07:48:18;;;;;;;5.60;3.40;;;11.40;62.80;;;;;;5094558;28;20031;-16
2023/03/02 07:50:45;;;;;;;6.05;3.72;;;11.50;60.60;;;;;;5075894;28;20127;-17
2023/03/02 07:53:11;;;;;;;5.53;3.70;;;11.60;59.70;;;;;;5094470;28;20028;-16
2023/03/02 07:55:40;;;;;;;5.22;3.40;;;11.70;59.80;;;;;;5094553;28;20028;-17
2023/03/02 07:58:06;;;;;;;8.57;3.95;;;11.60;61.90;;;;;;5094051;28;20024;-17
2023/03/02 08:00:32;;;;;;;6.68;3.63;;;11.70;61.20;;;;;;5094239;28;20035;-16
2023/03/02 08:02:58;;;;;;;5.85;3.65;;;11.90;60.70;;;;;;5093844;28;20032;-16
2023/03/02 08:05:24;;;;;;;6.93;3.65;;;12.00;58.60;;;;;;5094352;28;20073;-16
2023/03/02 08:07:50;;;;;;;6.75;3.92;;;12.10;60.50;;;;;;5094043;28;20021;-17
2023/03/02 08:10:17;;;;;;;6.50;3.78;;;12.20;59.90;;;;;;5094060;28;20089;-17
2023/03/02 08:12:43;;;;;;;6.63;3.50;;;12.40;58.70;;;;;;5093482;28;20031;-16
2023/03/02 08:15:10;;;;;;;4.95;3.40;;;12.20;58.10;;;;;;5094151;28;20035;-16
2023/03/02 08:17:35;;;;;;;6.85;3.63;;;12.00;58.50;;;;;;5092476;28;20064;-15
2023/03/02 08:20:03;;;;;;;5.43;3.60;;;11.90;58.70;;;;;;5075569;28;20055;-16
2023/03/02 08:22:29;;;;;;;6.20;3.85;;;11.90;59.40;;;;;;5094078;28;20032;-16
2023/03/02 08:24:55;;;;;;;6.65;3.67;;;11.70;59.50;;;;;;5093625;28;20111;-16
2023/03/02 08:27:21;;;;;;;6.22;4.10;;;11.50;58.70;;;;;;5093282;28;20514;-16
2023/03/02 08:29:46;;;;;;;7.88;4.05;;;11.50;60.30;;;;;;5093805;28;20077;-17
2023/03/02 08:32:12;;;;;;;10.18;5.05;;;11.60;60.10;;;;;;5093755;28;20445;-16
2023/03/02 08:34:38;;;;;;;6.70;4.00;;;11.60;59.90;;;;;;5075193;28;20031;-16
2023/03/02 08:37:04;;;;;;;6.18;3.70;;;11.60;59.90;;;;;;5093400;28;20031;-15
2023/03/02 08:39:31;;;;;;;6.68;4.15;;;11.50;59.30;;;;;;5093580;28;20035;-16
2023/03/02 08:41:57;;;;;;;8.75;4.32;;;11.50;59.50;;;;;;5093407;28;20028;-16
2023/03/02 08:44:22;;;;;;;7.63;3.75;;;11.40;59.80;;;;;;5093640;28;20031;-15
2023/03/02 08:46:49;;;;;;;7.50;3.88;;;11.10;60.70;;;;;;5093348;28;20028;-17
2023/03/02 08:49:16;;;;;;;6.57;3.58;;;11.20;61.00;;;;;;5093002;28;20367;-16
2023/03/02 08:51:42;;;;;;;6.53;3.97;;;11.30;60.30;;;;;;5093152;28;20077;-16
2023/03/02 08:54:09;;;;;;;6.40;3.55;;;11.30;59.80;;;;;;5093056;28;20111;-16
2023/03/02 08:56:36;;;;;;;8.18;4.20;;;11.40;60.20;;;;;;5093642;28;20575;-16
2023/03/02 08:59:06;;;;;;;8.13;4.00;;;11.40;61.10;;;;;;5092815;28;20032;-16
2023/03/02 09:01:34;;;;;;;6.03;3.80;;;11.40;61.30;;;;;;5093699;28;20051;-16
2023/03/02 09:04:01;;;;;;;5.47;4.10;;;11.30;60.80;;;;;;5093412;28;20040;-14
2023/03/02 09:06:29;;;;;;;6.55;4.20;;;11.10;60.60;;;;;;5092987;28;20031;-15
2023/03/02 09:08:55;;;;;;;6.72;3.88;;;11.20;61.30;;;;;;5092944;28;20084;-15
2023/03/02 09:11:21;;;;;;;5.97;3.78;;;11.10;61.90;;;;;;5092694;28;20476;-15
2023/03/02 09:13:47;;;;;;;6.90;3.90;;;11.00;63.10;;;;;;5093258;28;20035;-16
2023/03/02 09:16:13;;;;;;;7.07;4.20;;;10.90;62.50;;;;;;5093207;28;20142;-16
2023/03/02 09:18:39;;;;;;;7.85;4.40;;;11.10;63.90;;;;;;5092497;28;20471;-17
2023/03/02 09:21:05;;;;;;;6.50;4.38;;;11.00;61.80;;;;;;5093151;28;20233;-16
2023/03/02 09:23:32;;;;;;;6.15;4.22;;;10.90;63.30;;;;;;5092835;28;20118;-16
2023/03/02 09:25:58;;;;;;;10.82;4.07;;;10.80;63.40;;;;;;5092552;28;20512;-16
2023/03/02 09:28:24;;;;;;;8.02;4.30;;;10.80;62.60;;;;;;5091758;28;20127;-16
2023/03/02 09:30:52;;;;;;;5.70;4.00;;;10.70;63.20;;;;;;5092403;28;20144;-16
2023/03/02 09:33:19;;;;;;;6.88;4.45;;;10.70;63.20;;;;;;5092837;28;20052;-16
2023/03/02 09:35:46;;;;;;;6.80;4.85;;;10.60;61.80;;;;;;5093010;28;20028;-16
2023/03/02 09:38:15;;;;;;;7.45;4.40;;;10.60;63.50;;;;;;5092590;28;20035;-16
2023/03/02 09:40:57;;;;;;;6.25;3.92;;;10.50;63.20;;;;;;5092478;28;20064;-16
2023/03/02 09:43:58;;;;;;;5.45;3.90;;;10.50;63.60;;;;;;5092922;28;20039;-16
2023/03/02 09:46:36;;;;;;;6.50;4.28;;;10.50;63.80;;;;;;5053563;28;20141;-15
2023/03/02 09:49:07;;;;;;;6.57;4.22;;;10.50;63.40;;;;;;5092311;28;20463;-17
2023/03/02 09:51:42;;;;;;;7.63;4.40;;;10.50;63.90;;;;;;5092555;28;20392;-16
2023/03/02 09:54:17;;;;;;;7.80;4.35;;;10.50;63.70;;;;;;5092383;28;20028;-15
2023/03/02 09:56:58;;;;;;;8.25;4.20;;;10.50;64.00;;;;;;5092425;28;20029;-16
2023/03/02 09:59:40;;;;;;;9.70;5.57;;;10.50;64.20;;;;;;5092574;28;20040;-14
2023/03/02 10:02:18;;;;;;;7.10;4.47;;;10.30;64.80;;;;;;5092179;28;20463;-16
2023/03/02 10:04:47;;;;;;;7.40;4.57;;;10.30;65.00;;;;;;5091831;28;20024;-16
2023/03/02 10:07:25;;;;;;;7.50;4.50;;;10.30;65.20;;;;;;5092138;28;20028;-16
2023/03/02 10:09:52;;;;;;;7.07;4.50;;;10.30;65.00;;;;;;5092743;28;20150;-16
2023/03/02 10:12:18;;;;;;;8.00;4.50;;;10.40;65.30;;;;;;5092253;28;20032;-16
2023/03/02 10:14:55;;;;;;;7.05;4.75;;;10.40;64.80;;;;;;5092218;28;20082;-16
2023/03/02 10:17:38;;;;;;;7.88;4.82;;;10.50;65.20;;;;;;5091918;28;20039;-16
2023/03/02 10:20:13;;;;;;;7.28;4.60;;;10.50;66.10;;;;;;5092222;28;20030;-17
2023/03/02 10:22:47;;;;;;;7.15;4.25;;;10.50;66.70;;;;;;5092657;28;20035;-16
2023/03/02 10:25:33;;;;;;;6.20;4.07;;;10.60;66.10;;;;;;5092159;28;20028;-17
2023/03/02 10:28:15;;;;;;;7.65;4.70;;;10.70;66.20;;;;;;5091647;28;20085;-16
2023/03/02 10:30:41;;;;;;;7.45;5.07;;;10.70;66.30;;;;;;5146966;22;20190;-16
2023/03/02 10:33:15;;;;;;;8.25;5.32;;;10.80;66.70;;;;;;5092172;28;20039;-15
2023/03/02 10:35:49;;;;;;;10.65;5.80;;;10.90;66.10;;;;;;5092352;28;20025;-18
2023/03/02 10:38:18;;;;;;;7.07;4.90;;;11.00;66.60;;;;;;5160921;22;20048;-18
2023/03/02 10:40:49;;;;;;;9.60;5.47;;;11.20;65.50;;;;;;5092100;28;20028;-18
2023/03/02 10:43:29;;;;;;;6.93;4.57;;;11.30;65.10;;;;;;5095893;28;20069;-18
2023/03/02 10:46:01;;;;;;;7.82;5.28;;;11.40;64.50;;;;;;5095874;28;20028;-18
2023/03/02 10:48:27;;;;;;;6.82;4.40;;;11.40;64.10;;;;;;5095537;28;20477;-18
2023/03/02 10:50:55;;;;;;;7.57;5.15;;;11.50;64.60;;;;;;5095288;28;20032;-18
2023/03/02 10:53:21;;;;;;;6.43;4.57;;;11.60;64.20;;;;;;5095323;28;20549;-18
2023/03/02 10:55:49;;;;;;;8.73;4.65;;;11.80;64.10;;;;;;5077015;28;20107;-18
2023/03/02 10:58:18;;;;;;;6.57;4.40;;;11.90;62.80;;;;;;5095162;28;20094;-18
2023/03/02 11:01:02;;;;;;;9.05;4.65;;;11.90;62.60;;;;;;5095237;28;20028;-18
2023/03/02 11:03:29;;;;;;;7.43;4.67;;;11.90;62.50;;;;;;5095605;28;20103;-18
2023/03/02 11:05:56;;;;;;;6.97;4.68;;;11.90;62.60;;;;;;5094982;28;20395;-19
2023/03/02 11:08:25;;;;;;;10.00;5.15;;;11.90;62.30;;;;;;5094869;28;20445;-18
2023/03/02 11:10:54;;;;;;;7.20;4.50;;;11.90;61.50;;;;;;5076716;28;20319;-17
2023/03/02 11:13:31;;;;;;;7.10;4.75;;;11.90;62.20;;;;;;5095238;28;20032;-17
2023/03/02 11:16:00;;;;;;;7.82;5.00;;;12.00;61.30;;;;;;5094942;28;20086;-17
2023/03/02 11:18:35;;;;;;;7.88;4.70;;;12.00;61.50;;;;;;5094736;28;20028;-17
2023/03/02 11:21:26;;;;;;;9.18;4.40;;;12.10;61.60;;;;;;5094587;28;20107;-18
2023/03/02 11:24:15;;;;;;;7.18;4.45;;;12.30;60.70;;;;;;5077314;28;20036;-17
2023/03/02 11:26:54;;;;;;;9.07;4.97;;;12.40;60.80;;;;;;5094452;28;20065;-18
2023/03/02 11:29:38;;;;;;;6.25;3.97;;;12.50;60.40;;;;;;5094495;28;20032;-17
2023/03/02 11:32:06;;;;;;;6.85;4.32;;;12.50;59.40;;;;;;5094822;28;20028;-17
2023/03/02 11:34:48;;;;;;;7.97;4.32;;;12.60;60.70;;;;;;5094803;28;20047;-19
2023/03/02 11:37:36;;;;;;;6.35;4.43;;;12.50;61.60;;;;;;5095065;28;20020;-16
2023/03/02 11:40:11;;;;;;;7.07;4.32;;;12.40;61.30;;;;;;5076422;28;20561;-18
2023/03/02 11:42:40;;;;;;;6.97;4.50;;;12.40;61.80;;;;;;5094345;28;20509;-17
2023/03/02 11:45:28;;;;;;;8.98;4.80;;;12.40;61.80;;;;;;5094736;28;20024;-17
2023/03/02 11:48:21;;;;;;;8.52;5.00;;;12.40;62.50;;;;;;5094618;28;20024;-18
2023/03/02 11:50:57;;;;;;;9.75;5.80;;;12.40;62.50;;;;;;5149757;22;20056;-18
2023/03/02 11:53:37;;;;;;;7.50;4.40;;;12.40;60.60;;;;;;5094472;28;20052;-17
2023/03/02 11:56:03;;;;;;;7.72;4.47;;;12.40;61.50;;;;;;5094730;28;20078;-17
2023/03/02 11:58:30;;;;;;;8.23;4.60;;;12.40;61.30;;;;;;5094363;28;20050;-16
2023/03/02 12:00:57;;;;;;;7.75;4.47;;;12.40;61.30;;;;;;5094339;28;20043;-15
2023/03/02 12:03:35;;;;;;;7.28;4.43;;;12.40;61.40;;;;;;5076009;28;20054;-16
2023/03/02 12:06:23;;;;;;;7.93;4.85;;;12.30;61.40;;;;;;5094216;28;20027;-15
2023/03/02 12:09:07;;;;;;;7.28;4.20;;;12.30;61.70;;;;;;5094130;28;20084;-16
2023/03/02 12:11:37;;;;;;;7.60;4.60;;;12.30;60.40;;;;;;5094250;28;20039;-17
2023/03/02 12:14:24;;;;;;;6.72;4.32;;;12.30;61.10;;;;;;5094211;28;20024;-16
2023/03/02 12:17:02;;;;;;;8.38;4.15;;;12.30;61.40;;;;;;5094023;28;20100;-17
2023/03/02 12:19:39;;;;;;;10.23;5.65;;;12.40;60.90;;;;;;5093696;28;20032;-16
2023/03/02 12:22:09;;;;;;;11.50;5.93;;;12.40;60.90;;;;;;5093950;28;20027;-17
2023/03/02 12:24:38;;;;;;;10.50;6.55;;;12.40;60.70;;;;;;5093974;28;20016;-18
2023/03/02 12:27:25;;;;;;;7.28;4.35;;;12.40;60.80;;;;;;5093379;28;20073;-16
2023/03/02 12:30:08;;;;;;;6.82;4.07;;;12.40;60.80;;;;;;5093955;28;20043;-17
2023/03/02 12:32:34;;;;;;;7.20;4.05;;;12.40;60.80;;;;;;5093577;28;20113;-17
2023/03/02 12:35:12;;;;;;;9.52;5.50;;;12.40;60.80;;;;;;5075112;28;20032;-16
2023/03/02 12:37:46;;;;;;;6.93;4.28;;;12.50;61.00;;;;;;5163306;22;20052;-20
2023/03/02 12:40:24;;;;;;;10.23;4.88;;;12.70;60.80;;;;;;5093423;28;20512;-19
2023/03/02 12:43:26;;;;;;;6.85;4.40;;;12.90;60.50;;;;;;5093199;28;20039;-19
2023/03/02 12:46:22;;;;;;;8.02;4.40;;;13.20;59.00;;;;;;5093714;28;20069;-19
2023/03/02 12:49:06;;;;;;;8.07;4.43;;;13.40;58.90;;;;;;5093153;28;20402;-20
2023/03/02 12:51:49;;;;;;;7.47;3.90;;;13.60;58.70;;;;;;5093103;28;20047;-21
2023/03/02 12:54:18;;;;;;;6.27;4.30;;;13.90;57.50;;;;;;5074955;28;20032;-19
2023/03/02 12:56:44;;;;;;;7.47;4.32;;;14.00;57.40;;;;;;5093095;28;20024;-19
2023/03/02 12:59:22;;;;;;;7.32;4.63;;;14.30;56.00;;;;;;5093174;28;20510;-19
2023/03/02 13:01:48;;;;;;;6.97;4.38;;;14.50;56.50;;;;;;5093138;28;20020;-19
2023/03/02 13:04:25;;;;;;;6.95;4.20;;;14.70;55.60;;;;;;5092367;28;20024;-20